createdAt,value
2019-06-07T00:01:21.168Z,82.20
2019-06-07T00:02:56.018Z,82.15
2019-06-07T00:04:31.249Z,82.34
2019-06-07T00:06:07.080Z,82.13
2019-06-07T00:07:42.904Z,82.43
2019-06-07T00:09:21.993Z,82.43
2019-06-07T00:10:54.574Z,82.37
2019-06-07T00:12:29.253Z,82.39
2019-06-07T00:14:04.483Z,82.94
2019-06-07T00:15:39.209Z,83.12
2019-06-07T00:17:17.212Z,83.30
2019-06-07T00:18:50.853Z,83.42
2019-06-07T00:20:26.147Z,83.50
2019-06-07T00:22:17.580Z,83.77
2019-06-07T00:23:37.829Z,84.14
2019-06-07T00:25:15.228Z,84.23
2019-06-07T00:26:58.247Z,84.31
2019-06-07T00:28:26.117Z,84.53
2019-06-07T00:30:29.509Z,83.83
2019-06-07T00:31:38.042Z,84.53
2019-06-07T00:33:16.930Z,84.48
2019-06-07T00:34:49.800Z,85.52
2019-06-07T00:36:25.007Z,85.88
2019-06-07T00:37:59.978Z,85.35
2019-06-07T00:39:35.221Z,85.74
2019-06-07T00:41:10.057Z,85.98
2019-06-07T00:42:45.425Z,86.62
2019-06-07T00:44:23.030Z,86.28
2019-06-07T00:45:57.128Z,86.68
2019-06-07T00:47:31.783Z,86.01
2019-06-07T00:49:07.007Z,86.49
2019-06-07T00:50:41.689Z,85.84
2019-06-07T00:53:08.185Z,85.23
2019-06-07T00:53:53.641Z,85.74
2019-06-07T00:55:28.896Z,85.32
2019-06-07T00:57:03.600Z,85.72
2019-06-07T00:58:38.880Z,85.72
2019-06-07T01:00:18.331Z,85.34
2019-06-07T01:01:52.425Z,85.49
2019-06-07T01:03:27.088Z,85.39
2019-06-07T01:05:02.316Z,85.11
2019-06-07T01:06:37.135Z,85.20
2019-06-07T01:08:14.945Z,85.31
2019-06-07T01:09:48.826Z,85.57
2019-06-07T01:11:26.071Z,85.64
2019-06-07T01:13:00.526Z,85.31
2019-06-07T01:14:35.831Z,85.86
2019-06-07T01:16:10.562Z,85.97
2019-06-07T01:18:25.905Z,86.19
2019-06-07T01:19:25.963Z,86.55
2019-06-07T01:20:59.060Z,86.51
2019-06-07T01:22:33.722Z,86.58
2019-06-07T01:24:12.353Z,86.50
2019-06-07T01:25:45.474Z,86.84
2019-06-07T01:27:23.832Z,86.84
2019-06-07T01:28:57.171Z,87.22
2019-06-07T01:30:32.671Z,86.42
2019-06-07T01:32:07.423Z,86.42
2019-06-07T01:33:50.842Z,87.11
2019-06-07T01:35:21.418Z,87.38
2019-06-07T01:36:55.968Z,87.63
2019-06-07T01:38:30.651Z,87.74
2019-06-07T01:40:07.533Z,87.74
2019-06-07T01:41:43.166Z,87.78
2019-06-07T01:43:19.575Z,87.23
2019-06-07T01:44:54.768Z,87.66
2019-06-07T01:46:30.309Z,87.91
2019-06-07T01:48:05.045Z,88.01
2019-06-07T01:49:40.310Z,88.58
2019-06-07T01:51:14.948Z,88.36
2019-06-07T01:52:50.184Z,88.34
2019-06-07T01:54:52.141Z,88.34
2019-06-07T01:56:01.827Z,88.35
2019-06-07T01:57:47.725Z,88.62
2019-06-07T01:59:13.454Z,88.62
2019-06-07T02:00:48.123Z,88.67
2019-06-07T02:02:25.656Z,88.75
2019-06-07T02:03:59.776Z,89.15
2019-06-07T02:05:35.086Z,89.15
2019-06-07T02:07:09.715Z,89.09
2019-06-07T02:08:45.026Z,89.57
2019-06-07T02:10:24.011Z,89.25
2019-06-07T02:11:57.913Z,88.60
2019-06-07T02:13:32.638Z,88.60
2019-06-07T02:15:08.945Z,88.60
2019-06-07T02:16:43.610Z,88.44
2019-06-07T02:18:21.822Z,89.28
2019-06-07T02:19:55.233Z,89.36
2019-06-07T02:21:34.081Z,88.97
2019-06-07T02:23:07.193Z,89.26
2019-06-07T02:24:43.781Z,89.06
2019-06-07T02:26:18.587Z,89.37
2019-06-07T02:28:10.917Z,88.89
2019-06-07T02:29:33.383Z,88.89
2019-06-07T02:31:07.229Z,89.20
2019-06-07T02:32:41.887Z,88.23
2019-06-07T02:34:17.128Z,87.70
2019-06-07T02:35:51.755Z,87.87
2019-06-07T02:37:31.621Z,87.09
2019-06-07T02:39:03.719Z,87.09
2019-06-07T02:40:38.934Z,87.62
2019-06-07T02:42:13.696Z,86.33
2019-06-07T02:43:50.005Z,84.92
2019-06-07T02:45:26.038Z,84.46
2019-06-07T02:47:01.670Z,84.02
2019-06-07T02:48:40.138Z,83.59
2019-06-07T02:50:13.729Z,83.59
2019-06-07T02:51:48.447Z,83.93
2019-06-07T02:53:25.621Z,85.06
2019-06-07T02:55:00.116Z,85.80
2019-06-07T02:56:48.744Z,85.80
2019-06-07T02:58:11.682Z,85.90
2019-06-07T03:00:06.727Z,86.05
2019-06-07T03:01:24.906Z,86.06
2019-06-07T03:03:00.421Z,85.63
2019-06-07T03:04:41.765Z,86.16
2019-06-07T03:06:14.811Z,86.16
2019-06-07T03:07:49.653Z,86.18
2019-06-07T03:09:26.371Z,86.49
2019-06-07T03:11:02.150Z,86.40
2019-06-07T03:12:39.712Z,86.40
2019-06-07T03:14:14.440Z,86.32
2019-06-07T03:15:50.893Z,86.32
2019-06-07T03:17:45.108Z,86.92
2019-06-07T03:19:31.287Z,86.57
2019-06-07T03:21:09.144Z,86.29
2019-06-07T03:22:44.767Z,86.29
2019-06-07T03:24:22.519Z,86.14
2019-06-07T03:25:59.134Z,86.44
2019-06-07T03:27:44.009Z,86.61
2019-06-07T03:29:11.134Z,86.25
2019-06-07T03:31:00.784Z,85.71
2019-06-07T03:32:23.797Z,85.48
2019-06-07T03:33:59.845Z,85.48
2019-06-07T03:35:36.832Z,85.43
2019-06-07T03:37:11.416Z,85.11
2019-06-07T03:38:47.135Z,85.11
2019-06-07T03:40:22.368Z,84.60
2019-06-07T03:42:06.199Z,84.60
2019-06-07T03:43:37.798Z,84.78
2019-06-07T03:45:10.443Z,84.57
2019-06-07T03:46:45.678Z,84.62
2019-06-07T03:48:20.333Z,84.62
2019-06-07T03:49:55.583Z,83.85
2019-06-07T03:51:32.203Z,83.85
2019-06-07T03:53:07.183Z,83.86
2019-06-07T03:54:41.817Z,83.90
2019-06-07T03:56:18.148Z,83.66
2019-06-07T03:59:35.568Z,84.41
2019-06-07T04:01:06.091Z,84.41
2019-06-07T04:02:42.166Z,83.54
2019-06-07T04:04:16.959Z,83.54
2019-06-07T04:05:52.195Z,83.94
2019-06-07T04:07:28.988Z,84.12
2019-06-07T04:09:05.562Z,84.12
2019-06-07T04:10:55.733Z,84.29
2019-06-07T04:12:17.202Z,84.59
2019-06-07T04:13:51.855Z,84.59
2019-06-07T04:15:28.107Z,84.30
2019-06-07T04:17:02.939Z,83.80
2019-06-07T04:18:40.740Z,84.08
2019-06-07T04:20:15.651Z,84.23
2019-06-07T04:21:50.966Z,83.61
2019-06-07T04:23:30.050Z,82.98
2019-06-07T04:25:04.183Z,82.89
2019-06-07T04:26:43.161Z,82.26
2019-06-07T04:28:15.878Z,82.29
2019-06-07T04:30:06.525Z,82.46
2019-06-07T04:31:28.376Z,82.46
2019-06-07T04:33:03.093Z,82.00
2019-06-07T04:34:42.793Z,81.69
2019-06-07T04:36:15.105Z,81.17
2019-06-07T04:37:50.516Z,79.96
2019-06-07T04:39:25.547Z,79.69
2019-06-07T04:41:01.352Z,80.00
2019-06-07T04:42:43.724Z,79.50
2019-06-07T04:44:13.950Z,79.31
2019-06-07T04:45:51.535Z,79.39
2019-06-07T04:47:29.658Z,78.35
2019-06-07T04:49:04.799Z,76.94
2019-06-07T04:50:43.678Z,71.06
2019-06-07T04:52:16.582Z,66.74
2019-06-07T04:53:51.833Z,72.51
2019-06-07T04:55:26.568Z,71.67
2019-06-07T04:57:01.825Z,68.36
2019-06-07T04:58:38.421Z,68.41
2019-06-07T05:00:46.773Z,66.06
2019-06-07T05:01:49.978Z,61.96
2019-06-07T05:03:25.218Z,51.11
2019-06-07T05:04:59.856Z,46.63
2019-06-07T05:06:37.589Z,45.13
2019-06-07T05:08:27.654Z,45.91
2019-06-07T05:09:51.585Z,42.16
2019-06-07T05:11:26.191Z,40.54
2019-06-07T05:13:01.435Z,43.89
2019-06-07T05:14:36.762Z,37.82
2019-06-07T05:16:13.060Z,37.78
2019-06-07T05:17:47.695Z,39.59
2019-06-07T05:19:22.952Z,38.35
2019-06-07T05:20:57.602Z,37.76
2019-06-07T05:22:34.897Z,37.45
2019-06-07T05:24:10.605Z,39.91
2019-06-07T05:25:46.061Z,36.55
2019-06-07T05:27:20.710Z,35.16
2019-06-07T05:28:55.943Z,34.12
2019-06-07T05:31:03.865Z,34.33
2019-06-07T05:32:25.271Z,35.03
2019-06-07T05:33:59.887Z,31.40
2019-06-07T05:35:36.201Z,30.97
2019-06-07T05:37:12.316Z,32.07
2019-06-07T05:38:47.712Z,31.55
2019-06-07T05:40:32.947Z,34.79
2019-06-07T05:42:08.838Z,34.99
2019-06-07T05:43:51.470Z,30.73
2019-06-07T05:45:24.531Z,37.36
2019-06-07T05:47:00.720Z,34.26
2019-06-07T05:48:36.653Z,30.58
2019-06-07T05:50:38.581Z,30.13
2019-06-07T05:51:48.517Z,28.88
2019-06-07T05:53:23.852Z,28.00
2019-06-07T05:54:58.493Z,29.40
2019-06-07T05:56:35.728Z,26.60
2019-06-07T05:58:10.083Z,33.52
2019-06-07T05:59:47.629Z,32.47
2019-06-07T06:01:45.016Z,31.04
2019-06-07T06:03:05.382Z,33.15
2019-06-07T06:04:36.284Z,29.37
2019-06-07T06:06:12.594Z,32.19
2019-06-07T06:07:50.561Z,34.25
2019-06-07T06:09:24.260Z,32.47
2019-06-07T06:10:58.926Z,34.29
2019-06-07T06:12:38.665Z,27.20
2019-06-07T06:14:10.673Z,29.76
2019-06-07T06:16:00.576Z,31.85
2019-06-07T06:17:22.297Z,29.08
2019-06-07T06:18:58.603Z,31.43
2019-06-07T06:20:59.787Z,27.91
2019-06-07T06:22:10.219Z,26.19
2019-06-07T06:23:47.978Z,29.00
2019-06-07T06:25:32.506Z,30.69
2019-06-07T06:27:18.644Z,30.17
2019-06-07T06:28:36.934Z,28.13
2019-06-07T06:30:12.829Z,28.20
2019-06-07T06:32:36.714Z,27.19
2019-06-07T06:33:33.826Z,28.58
2019-06-07T06:35:01.580Z,30.90
2019-06-07T06:36:37.358Z,28.47
2019-06-07T06:38:12.760Z,30.43
2019-06-07T06:39:49.983Z,26.94
2019-06-07T06:41:24.470Z,29.23
2019-06-07T06:42:59.216Z,27.67
2019-06-07T06:44:34.524Z,21.77
2019-06-07T06:46:09.231Z,25.44
2019-06-07T06:47:47.643Z,26.58
2019-06-07T06:49:20.803Z,27.96
2019-06-07T06:50:56.026Z,25.65
2019-06-07T06:52:30.766Z,26.65
2019-06-07T06:54:06.110Z,27.52
2019-06-07T06:55:41.494Z,27.80
2019-06-07T06:57:19.940Z,27.40
2019-06-07T06:59:35.364Z,24.32
2019-06-07T07:00:53.623Z,27.77
2019-06-07T07:02:22.516Z,26.97
2019-06-07T07:04:11.424Z,26.09
2019-06-07T07:05:34.314Z,28.44
2019-06-07T07:07:09.235Z,25.33
2019-06-07T07:08:47.927Z,25.78
2019-06-07T07:10:33.741Z,23.94
2019-06-07T07:12:12.970Z,27.73
2019-06-07T07:13:49.959Z,25.39
2019-06-07T07:15:22.499Z,24.35
2019-06-07T07:16:57.165Z,26.70
2019-06-07T07:18:32.400Z,26.91
2019-06-07T07:20:07.158Z,26.89
2019-06-07T07:21:45.075Z,27.21
2019-06-07T07:23:18.735Z,24.59
2019-06-07T07:24:54.985Z,24.19
2019-06-07T07:26:29.737Z,25.40
2019-06-07T07:28:05.264Z,22.59
2019-06-07T07:29:39.898Z,22.04
2019-06-07T07:31:15.124Z,23.24
2019-06-07T07:32:51.294Z,24.06
2019-06-07T07:34:36.345Z,22.41
2019-06-07T07:36:22.569Z,21.74
2019-06-07T07:37:40.070Z,22.18
2019-06-07T07:39:14.690Z,21.29
2019-06-07T07:41:09.067Z,22.94
2019-06-07T07:42:26.392Z,25.11
2019-06-07T07:44:06.623Z,23.21
2019-06-07T07:45:38.035Z,23.75
2019-06-07T07:47:13.336Z,24.57
2019-06-07T07:48:48.476Z,26.24
2019-06-07T07:50:23.933Z,25.39
2019-06-07T07:51:59.227Z,25.77
2019-06-07T07:53:48.235Z,26.96
2019-06-07T07:55:11.157Z,21.10
2019-06-07T07:56:47.133Z,28.01
2019-06-07T07:58:22.766Z,23.27
2019-06-07T08:00:25.602Z,26.85
2019-06-07T08:01:34.324Z,34.94
2019-06-07T08:03:09.715Z,28.48
2019-06-07T08:06:21.461Z,22.64
2019-06-07T08:08:00.280Z,27.90
2019-06-07T08:09:33.065Z,26.66
2019-06-07T08:11:07.806Z,27.45
2019-06-07T08:12:56.230Z,25.97
2019-06-07T08:14:19.442Z,32.74
2019-06-07T08:15:59.212Z,32.62
2019-06-07T08:17:31.006Z,28.05
2019-06-07T08:19:06.291Z,31.29
2019-06-07T08:21:01.520Z,31.84
2019-06-07T08:22:18.230Z,26.30
2019-06-07T08:23:58.305Z,25.64
2019-06-07T08:25:29.824Z,26.53
2019-06-07T08:27:25.290Z,35.04
2019-06-07T08:28:41.595Z,34.00
2019-06-07T08:30:46.984Z,33.93
2019-06-07T08:31:55.903Z,31.31
2019-06-07T08:33:30.048Z,27.70
2019-06-07T08:35:06.753Z,29.84
2019-06-07T08:36:42.818Z,26.24
2019-06-07T08:38:33.815Z,25.42
2019-06-07T08:39:56.756Z,33.75
2019-06-07T08:41:31.402Z,33.35
2019-06-07T08:43:18.338Z,38.88
2019-06-07T08:44:43.061Z,31.70
2019-06-07T08:46:17.723Z,33.51
2019-06-07T08:47:57.971Z,35.11
2019-06-07T08:49:29.296Z,34.03
2019-06-07T08:51:08.290Z,28.97
2019-06-07T08:52:42.120Z,38.47
2019-06-07T08:54:22.788Z,41.42
2019-06-07T08:55:58.779Z,43.88
2019-06-07T08:57:30.660Z,39.98
2019-06-07T08:59:11.271Z,38.18
2019-06-07T09:00:46.654Z,38.68
2019-06-07T09:02:23.638Z,36.60
2019-06-07T09:04:02.684Z,39.72
2019-06-07T09:05:32.304Z,38.86
2019-06-07T09:07:18.764Z,41.84
2019-06-07T09:08:45.037Z,40.99
2019-06-07T09:10:20.833Z,37.38
2019-06-07T09:11:57.195Z,38.73
2019-06-07T09:13:33.244Z,36.95
2019-06-07T09:15:20.963Z,34.78
2019-06-07T09:16:45.628Z,38.41
2019-06-07T09:18:42.860Z,38.17
2019-06-07T09:19:59.029Z,35.42
2019-06-07T09:21:33.715Z,35.37
2019-06-07T09:23:16.860Z,36.74
2019-06-07T09:24:45.484Z,36.66
2019-06-07T09:26:20.759Z,38.60
2019-06-07T09:28:02.322Z,37.24
2019-06-07T09:29:33.207Z,37.77
2019-06-07T09:31:11.794Z,36.74
2019-06-07T09:32:44.797Z,36.75
2019-06-07T09:34:19.436Z,40.66
2019-06-07T09:35:56.234Z,38.77
2019-06-07T09:38:04.240Z,39.72
2019-06-07T09:39:12.440Z,38.08
2019-06-07T09:40:45.001Z,37.58
2019-06-07T09:42:20.254Z,37.90
2019-06-07T09:44:04.719Z,38.06
2019-06-07T09:45:32.930Z,39.98
2019-06-07T09:47:24.411Z,41.37
2019-06-07T09:49:10.616Z,39.55
2019-06-07T09:50:21.402Z,39.61
2019-06-07T09:51:57.949Z,43.21
2019-06-07T09:53:33.172Z,37.16
2019-06-07T09:55:22.809Z,36.35
2019-06-07T09:56:46.305Z,36.14
2019-06-07T09:59:59.556Z,39.60
2019-06-07T10:01:35.062Z,39.20
2019-06-07T10:03:20.165Z,40.32
2019-06-07T10:04:46.669Z,38.48
2019-06-07T10:06:21.374Z,41.60
2019-06-07T10:08:12.114Z,40.83
2019-06-07T10:11:11.095Z,39.07
2019-06-07T10:12:45.794Z,37.92
2019-06-07T10:14:21.013Z,35.67
2019-06-07T10:15:55.719Z,37.52
2019-06-07T10:17:30.976Z,38.53
2019-06-07T10:19:07.408Z,38.31
2019-06-07T10:20:42.848Z,40.35
2019-06-07T10:22:17.511Z,38.79
2019-06-07T10:23:52.770Z,40.40
2019-06-07T10:25:27.439Z,38.78
2019-06-07T10:27:04.019Z,39.07
2019-06-07T10:28:38.829Z,41.25
2019-06-07T10:30:14.759Z,41.04
2019-06-07T10:31:49.423Z,38.71
2019-06-07T10:33:24.643Z,41.20
2019-06-07T10:35:00.499Z,41.05
2019-06-07T10:36:35.927Z,41.53
2019-06-07T10:38:10.757Z,39.84
2019-06-07T10:39:49.081Z,41.51
2019-06-07T10:41:22.346Z,41.78
2019-06-07T10:42:57.559Z,40.32
2019-06-07T10:44:32.225Z,42.04
2019-06-07T10:46:07.684Z,41.39
2019-06-07T10:47:42.528Z,41.83
2019-06-07T10:49:17.765Z,40.55
2019-06-07T10:50:52.431Z,41.62
2019-06-07T10:52:27.684Z,41.91
2019-06-07T10:54:19.213Z,40.86
2019-06-07T10:55:39.686Z,38.54
2019-06-07T10:57:16.220Z,37.01
2019-06-07T10:58:51.331Z,39.99
2019-06-07T11:00:26.666Z,39.10
2019-06-07T11:02:03.372Z,39.17
2019-06-07T11:03:39.092Z,38.19
2019-06-07T11:05:14.614Z,39.22
2019-06-07T11:06:49.293Z,38.96
2019-06-07T11:08:24.584Z,40.25
2019-06-07T11:10:07.093Z,39.46
2019-06-07T11:11:36.265Z,38.99
2019-06-07T11:13:12.382Z,41.05
2019-06-07T11:14:47.925Z,41.54
2019-06-07T11:16:22.595Z,43.07
2019-06-07T11:17:57.864Z,41.05
2019-06-07T11:19:32.491Z,43.82
2019-06-07T11:21:07.987Z,42.83
2019-06-07T11:22:42.720Z,44.04
2019-06-07T11:24:23.711Z,44.37
2019-06-07T11:25:54.391Z,43.48
2019-06-07T11:27:29.687Z,43.89
2019-06-07T11:29:04.400Z,41.82
2019-06-07T11:30:39.661Z,42.66
2019-06-07T11:32:14.674Z,41.81
2019-06-07T11:33:50.078Z,41.34
2019-06-07T11:35:24.801Z,44.05
2019-06-07T11:37:00.053Z,45.19
2019-06-07T11:38:34.695Z,44.34
2019-06-07T11:40:27.944Z,43.41
2019-06-07T11:41:46.535Z,44.28
2019-06-07T11:43:21.781Z,44.69
2019-06-07T11:44:57.333Z,44.25
2019-06-07T11:46:32.783Z,45.42
2019-06-07T11:48:07.422Z,44.94
2019-06-07T11:49:42.653Z,45.75
2019-06-07T11:51:18.825Z,44.38
2019-06-07T11:52:54.150Z,44.63
2019-06-07T11:54:28.775Z,44.89
2019-06-07T11:56:04.001Z,44.85
2019-06-07T11:57:38.655Z,43.72
2019-06-07T11:59:15.322Z,44.76
2019-06-07T12:00:50.410Z,45.95
2019-06-07T12:02:25.644Z,46.56
2019-06-07T12:04:00.290Z,45.95
2019-06-07T12:05:35.511Z,46.67
2019-06-07T12:07:12.085Z,47.21
2019-06-07T12:08:47.215Z,46.27
2019-06-07T12:10:23.780Z,45.61
2019-06-07T12:11:59.011Z,46.78
2019-06-07T12:13:33.706Z,46.67
2019-06-07T12:15:10.967Z,46.91
2019-06-07T12:16:45.718Z,47.02
2019-06-07T12:18:20.944Z,47.51
2019-06-07T12:19:55.591Z,46.42
2019-06-07T12:21:30.902Z,48.27
2019-06-07T12:23:05.662Z,47.19
2019-06-07T12:24:40.864Z,47.14
2019-06-07T12:26:16.591Z,47.37
2019-06-07T12:27:52.028Z,46.74
2019-06-07T12:29:26.719Z,47.05
2019-06-07T12:31:01.962Z,46.66
2019-06-07T12:32:36.610Z,46.52
2019-06-07T12:34:13.160Z,47.13
2019-06-07T12:35:48.038Z,48.21
2019-06-07T12:37:39.084Z,47.73
2019-06-07T12:39:00.963Z,47.95
2019-06-07T12:40:37.906Z,48.34
2019-06-07T12:42:12.553Z,47.29
2019-06-07T12:43:47.798Z,48.55
2019-06-07T12:45:43.984Z,48.41
2019-06-07T12:46:59.539Z,48.86
2019-06-07T12:48:34.173Z,49.33
2019-06-07T12:50:09.853Z,48.87
2019-06-07T12:51:45.040Z,49.11
2019-06-07T12:53:24.938Z,48.14
2019-06-07T12:54:56.696Z,48.73
2019-06-07T12:56:31.961Z,47.83
2019-06-07T12:58:06.585Z,48.61
2019-06-07T12:59:41.908Z,48.37
2019-06-07T13:01:18.095Z,48.16
2019-06-07T13:02:55.112Z,47.88
2019-06-07T13:04:29.768Z,47.96
2019-06-07T13:06:05.077Z,47.29
2019-06-07T13:07:39.743Z,47.67
2019-06-07T13:09:15.691Z,47.31
2019-06-07T13:10:50.402Z,47.77
2019-06-07T13:12:25.639Z,47.94
2019-06-07T13:14:00.291Z,47.40
2019-06-07T13:15:35.548Z,46.19
2019-06-07T13:17:10.260Z,45.14
2019-06-07T13:18:45.509Z,44.93
2019-06-07T13:20:20.554Z,45.15
2019-06-07T13:21:55.841Z,45.29
2019-06-07T13:23:30.503Z,46.31
2019-06-07T13:25:06.683Z,47.30
2019-06-07T13:26:41.332Z,46.15
2019-06-07T13:28:17.212Z,44.51
2019-06-07T13:29:52.914Z,44.47
2019-06-07T13:31:28.143Z,44.72
2019-06-07T13:33:02.794Z,44.25
2019-06-07T13:34:38.053Z,43.96
2019-06-07T13:36:12.727Z,44.46
2019-06-07T13:37:48.065Z,43.81
2019-06-07T13:39:25.872Z,42.72
2019-06-07T13:40:59.727Z,43.85
2019-06-07T13:42:34.362Z,44.09
2019-06-07T13:44:09.589Z,44.71
2019-06-07T13:45:44.252Z,46.81
2019-06-07T13:47:19.466Z,46.72
2019-06-07T13:48:54.103Z,47.17
2019-06-07T13:50:29.413Z,46.69
2019-06-07T13:52:04.067Z,46.44
2019-06-07T13:53:39.281Z,46.45
2019-06-07T13:55:14.068Z,46.93
2019-06-07T13:57:01.641Z,46.23
2019-06-07T13:58:26.425Z,46.63
2019-06-07T14:00:09.962Z,47.05
2019-06-07T14:01:38.300Z,46.49
2019-06-07T14:03:13.597Z,46.51
2019-06-07T14:04:48.223Z,47.84
2019-06-07T14:06:25.191Z,47.10
2019-06-07T14:08:00.032Z,47.04
2019-06-07T14:09:35.330Z,46.94
2019-06-07T14:11:09.968Z,47.53
2019-06-07T14:12:45.204Z,47.89
2019-06-07T14:14:20.210Z,47.96
2019-06-07T14:15:55.539Z,47.75
2019-06-07T14:17:30.998Z,47.65
2019-06-07T14:19:09.681Z,47.76
2019-06-07T14:20:44.313Z,48.46
2019-06-07T14:22:20.554Z,48.22
2019-06-07T14:23:55.362Z,48.42
2019-06-07T14:25:31.425Z,47.78
2019-06-07T14:27:06.181Z,47.91
2019-06-07T14:28:41.407Z,47.72
2019-06-07T14:30:16.899Z,47.87
2019-06-07T14:31:52.111Z,47.62
2019-06-07T14:33:28.297Z,48.41
2019-06-07T14:35:04.036Z,47.86
2019-06-07T14:36:38.682Z,48.34
2019-06-07T14:38:13.911Z,48.25
2019-06-07T14:39:48.556Z,48.49
2019-06-07T14:41:24.942Z,48.68
2019-06-07T14:42:59.827Z,48.21
2019-06-07T14:44:35.153Z,48.91
2019-06-07T14:46:09.793Z,49.09
2019-06-07T14:47:45.047Z,49.39
2019-06-07T14:49:19.705Z,49.31
2019-06-07T14:50:54.921Z,49.31
2019-06-07T14:52:30.689Z,49.42
2019-06-07T14:54:06.373Z,48.72
2019-06-07T14:55:41.040Z,48.67
2019-06-07T14:57:16.253Z,48.83
2019-06-07T14:58:50.985Z,48.79
2019-06-07T15:00:40.418Z,49.40
2019-06-07T15:02:15.639Z,49.29
2019-06-07T15:03:50.291Z,49.21
2019-06-07T15:05:31.345Z,49.31
2019-06-07T15:07:08.857Z,49.03
2019-06-07T15:08:44.099Z,49.41
2019-06-07T15:10:18.775Z,49.08
2019-06-07T15:11:54.005Z,49.60
2019-06-07T15:13:29.633Z,49.69
2019-06-07T15:15:05.120Z,49.46
2019-06-07T15:16:39.748Z,49.94
2019-06-07T15:18:14.958Z,49.84
2019-06-07T15:19:49.653Z,49.98
2019-06-07T15:21:24.907Z,49.28
2019-06-07T15:22:59.540Z,49.40
2019-06-07T15:24:38.622Z,49.18
2019-06-07T15:26:12.106Z,49.40
2019-06-07T15:27:47.408Z,49.01
2019-06-07T15:29:22.049Z,49.55
2019-06-07T15:30:57.287Z,49.53
2019-06-07T15:32:32.655Z,49.79
2019-06-07T15:34:08.096Z,49.49
2019-06-07T15:35:42.753Z,48.57
2019-06-07T15:37:19.149Z,48.34
2019-06-07T15:38:53.782Z,48.92
2019-06-07T15:40:29.173Z,48.47
2019-06-07T15:42:04.992Z,49.60
2019-06-07T15:43:40.298Z,50.50
2019-06-07T15:45:16.495Z,50.39
2019-06-07T15:46:51.723Z,50.03
2019-06-07T15:48:26.368Z,50.05
2019-06-07T15:50:01.587Z,50.12
2019-06-07T15:51:36.863Z,50.11
2019-06-07T15:53:12.234Z,49.88
2019-06-07T15:54:46.871Z,49.73
2019-06-07T15:56:22.169Z,49.84
2019-06-07T15:57:56.855Z,50.14
2019-06-07T15:59:33.189Z,50.18
2019-06-07T16:01:07.843Z,50.81
2019-06-07T16:02:43.193Z,51.00
2019-06-07T16:04:17.825Z,51.32
2019-06-07T16:05:53.069Z,51.31
2019-06-07T16:07:27.768Z,51.03
2019-06-07T16:09:02.990Z,51.08
2019-06-07T16:10:40.850Z,51.09
2019-06-07T16:12:16.280Z,50.75
2019-06-07T16:13:50.908Z,50.40
2019-06-07T16:15:26.137Z,50.18
2019-06-07T16:17:00.789Z,49.92
2019-06-07T16:18:37.564Z,49.88
2019-06-07T16:20:13.951Z,50.07
2019-06-07T16:21:49.212Z,50.13
2019-06-07T16:23:23.941Z,49.89
2019-06-07T16:24:59.166Z,50.00
2019-06-07T16:26:34.086Z,49.85
2019-06-07T16:28:09.583Z,49.96
2019-06-07T16:29:44.850Z,50.15
2019-06-07T16:31:20.167Z,49.92
2019-06-07T16:32:54.822Z,49.87
2019-06-07T16:34:30.109Z,49.80
2019-06-07T16:36:04.837Z,49.93
2019-06-07T16:37:40.858Z,49.95
2019-06-07T16:39:15.668Z,49.97
2019-06-07T16:40:50.949Z,50.12
2019-06-07T16:42:25.599Z,49.89
2019-06-07T16:44:00.873Z,50.17
2019-06-07T16:45:36.493Z,50.29
2019-06-07T16:47:11.861Z,50.27
2019-06-07T16:48:46.572Z,49.95
2019-06-07T16:50:22.115Z,50.42
2019-06-07T16:51:56.765Z,50.56
2019-06-07T16:53:32.017Z,50.47
2019-06-07T16:55:07.113Z,50.70
2019-06-07T16:56:47.343Z,50.94
2019-06-07T16:58:18.863Z,51.17
2019-06-07T16:59:54.116Z,51.28
2019-06-07T17:01:28.770Z,51.31
2019-06-07T17:03:04.024Z,51.36
2019-06-07T17:04:39.448Z,51.26
2019-06-07T17:06:14.764Z,50.87
2019-06-07T17:07:50.510Z,50.96
2019-06-07T17:09:25.741Z,51.10
2019-06-07T17:11:00.364Z,51.40
2019-06-07T17:12:35.696Z,51.68
2019-06-07T17:14:10.362Z,51.96
2019-06-07T17:15:46.732Z,52.06
2019-06-07T17:17:21.395Z,52.01
2019-06-07T17:18:56.653Z,52.09
2019-06-07T17:20:31.373Z,52.21
2019-06-07T17:22:06.687Z,52.42
2019-06-07T17:23:41.482Z,52.66
2019-06-07T17:25:18.373Z,52.90
2019-06-07T17:26:53.064Z,52.69
2019-06-07T17:28:28.356Z,52.47
2019-06-07T17:30:03.017Z,52.39
2019-06-07T17:31:38.248Z,52.55
2019-06-07T17:33:12.904Z,52.52
2019-06-07T17:34:48.271Z,52.75
2019-06-07T17:36:22.963Z,52.61
2019-06-07T17:37:58.182Z,52.66
2019-06-07T17:39:32.845Z,52.69
2019-06-07T17:41:08.095Z,52.84
2019-06-07T17:42:42.844Z,52.87
2019-06-07T17:44:18.084Z,52.93
2019-06-07T17:45:52.824Z,52.97
2019-06-07T17:47:28.091Z,53.19
2019-06-07T17:49:02.731Z,53.23
2019-06-07T17:50:37.949Z,53.31
2019-06-07T17:52:12.628Z,53.25
2019-06-07T17:53:47.866Z,53.28
2019-06-07T17:55:22.566Z,53.45
2019-06-07T17:56:57.796Z,53.50
2019-06-07T17:58:32.431Z,53.63
2019-06-07T18:00:27.732Z,53.74
2019-06-07T18:02:06.774Z,53.85
2019-06-07T18:03:21.741Z,53.99
2019-06-07T18:04:57.740Z,54.20
2019-06-07T18:06:33.056Z,54.39
2019-06-07T18:08:07.777Z,54.47
2019-06-07T18:09:43.419Z,54.66
2019-06-07T18:11:18.053Z,54.69
2019-06-07T18:12:55.260Z,54.89
2019-06-07T18:14:29.640Z,55.00
2019-06-07T18:16:05.012Z,55.11
2019-06-07T18:17:39.734Z,55.18
2019-06-07T18:19:14.963Z,55.35
2019-06-07T18:20:49.615Z,55.76
2019-06-07T18:22:24.836Z,55.98
2019-06-07T18:23:59.504Z,56.26
2019-06-07T18:25:34.846Z,56.57
2019-06-07T18:27:09.552Z,56.70
2019-06-07T18:28:46.499Z,56.89
2019-06-07T18:30:21.363Z,57.08
2019-06-07T18:31:56.592Z,57.23
2019-06-07T18:33:31.265Z,57.37
2019-06-07T18:35:06.591Z,57.70
2019-06-07T18:36:41.256Z,57.76
2019-06-07T18:38:16.583Z,57.97
2019-06-07T18:39:51.329Z,58.17
2019-06-07T18:41:27.698Z,58.32
2019-06-07T18:43:02.391Z,58.36
2019-06-07T18:44:37.735Z,58.37
2019-06-07T18:46:12.474Z,58.71
2019-06-07T18:47:47.912Z,58.89
2019-06-07T18:49:22.871Z,59.00
2019-06-07T18:50:59.208Z,59.17
2019-06-07T18:52:35.768Z,59.15
2019-06-07T18:54:11.074Z,59.52
2019-06-07T18:55:45.723Z,59.30
2019-06-07T18:57:20.956Z,59.70
2019-06-07T18:58:55.616Z,59.87
2019-06-07T19:00:31.150Z,60.07
2019-06-07T19:02:05.877Z,60.54
2019-06-07T19:03:41.189Z,60.51
2019-06-07T19:05:16.206Z,60.56
2019-06-07T19:06:52.239Z,60.14
2019-06-07T19:08:26.948Z,60.25
2019-06-07T19:10:02.189Z,60.43
2019-06-07T19:11:36.863Z,60.50
2019-06-07T19:13:12.089Z,60.52
2019-06-07T19:14:47.127Z,60.62
2019-06-07T19:16:22.342Z,60.34
2019-06-07T19:17:58.115Z,60.52
2019-06-07T19:19:33.458Z,60.48
2019-06-07T19:21:08.093Z,60.55
2019-06-07T19:22:43.402Z,60.76
2019-06-07T19:24:18.069Z,60.57
2019-06-07T19:25:54.279Z,60.75
2019-06-07T19:27:32.599Z,60.88
2019-06-07T19:29:06.047Z,60.97
2019-06-07T19:30:40.735Z,60.99
2019-06-07T19:32:16.052Z,60.90
2019-06-07T19:33:51.010Z,60.77
2019-06-07T19:35:26.428Z,60.82
2019-06-07T19:37:02.117Z,60.94
2019-06-07T19:38:37.485Z,60.87
2019-06-07T19:40:12.625Z,60.99
2019-06-07T19:41:47.883Z,60.82
2019-06-07T19:43:22.672Z,60.80
2019-06-07T19:45:17.126Z,61.05
2019-06-07T19:46:34.284Z,61.00
2019-06-07T19:48:09.587Z,61.00
2019-06-07T19:49:44.226Z,61.17
2019-06-07T19:51:20.418Z,61.27
2019-06-07T19:52:55.216Z,61.51
2019-06-07T19:54:30.517Z,61.80
2019-06-07T19:56:05.250Z,62.74
2019-06-07T19:57:40.555Z,64.23
2019-06-07T19:59:15.187Z,64.66
2019-06-07T20:00:50.452Z,65.24
2019-06-07T20:02:25.186Z,66.13
2019-06-07T20:04:00.432Z,66.83
2019-06-07T20:05:35.083Z,70.78
2019-06-07T20:07:10.325Z,75.53
2019-06-07T20:08:45.014Z,76.93
2019-06-07T20:10:20.880Z,79.23
2019-06-07T20:11:56.482Z,79.00
2019-06-07T20:13:31.787Z,81.17
2019-06-07T20:15:27.307Z,81.87
2019-06-07T20:16:43.579Z,85.55
2019-06-07T20:18:18.226Z,88.91
2019-06-07T20:19:53.459Z,90.08
2019-06-07T20:21:28.092Z,89.32
2019-06-07T20:23:03.316Z,91.10
2019-06-07T20:24:38.240Z,89.46
2019-06-07T20:26:13.661Z,91.55
2019-06-07T20:27:48.327Z,90.92
2019-06-07T20:29:26.369Z,91.05
2019-06-07T20:30:59.933Z,90.10
2019-06-07T20:32:35.250Z,90.24
2019-06-07T20:34:09.880Z,92.44
2019-06-07T20:35:45.135Z,90.21
2019-06-07T20:37:19.773Z,90.87
2019-06-07T20:38:55.060Z,90.59